Terminal Aerodrome Forecast
Issued by NWS

Home | Current Version | Previous Version | Text Only | Print | Product List | Glossary Off
Versions: 1 2 3 4 5 6 7 8 9 10 11 12 13 14

000
FTUS43 KUNR 310200 AAA
TAFGCC
TAF AMD
KGCC 310226Z 3102/3124 32010G20KT P6SM BKN050 OVC100
     FM310500 25006KT P6SM SCT015 OVC050
     FM311300 33009KT P6SM OVC040
     FM311400 33012KT P6SM -TSRA OVC050CB=

USA.gov is the U.S. government's official web portal to all federal, state and local government web resources and services.